createdAt,value
2018-12-12T00:01:31.907Z,16.20
2018-12-12T00:04:03.365Z,15.00
2018-12-12T00:06:11.508Z,15.87
2018-12-12T00:08:17.586Z,15.05
2018-12-12T00:10:23.866Z,14.70
2018-12-12T00:12:31.099Z,18.17
2018-12-12T00:14:37.839Z,20.83
2018-12-12T00:16:44.092Z,20.32
2018-12-12T00:21:12.886Z,17.40
2018-12-12T00:23:18.957Z,16.80
2018-12-12T00:25:47.677Z,17.73
2018-12-12T00:28:16.612Z,20.70
2018-12-12T00:30:22.872Z,15.23
2018-12-12T00:32:28.963Z,17.60
2018-12-12T00:34:35.302Z,18.63
2018-12-12T00:36:42.278Z,21.10
2018-12-12T00:38:48.401Z,16.80
2018-12-12T00:40:55.752Z,17.80
2018-12-12T00:43:01.993Z,17.23
2018-12-12T00:45:08.221Z,21.60
2018-12-12T00:49:39.867Z,17.20
2018-12-12T00:51:46.189Z,17.50
2018-12-12T00:53:52.553Z,18.80
2018-12-12T00:55:58.665Z,17.43
2018-12-12T00:58:04.847Z,21.50
2018-12-12T01:00:33.783Z,20.20
2018-12-12T01:03:02.447Z,23.53
2018-12-12T01:05:08.889Z,19.67
2018-12-12T01:07:15.183Z,17.67
2018-12-12T01:11:44.433Z,16.80
2018-12-12T01:13:51.145Z,17.70
2018-12-12T01:15:57.392Z,22.30
2018-12-12T01:18:04.001Z,18.60
2018-12-12T01:20:10.348Z,22.13
2018-12-12T01:22:16.412Z,18.73
2018-12-12T01:24:45.049Z,16.40
2018-12-12T01:27:13.478Z,20.40
2018-12-12T01:29:19.649Z,20.23
2018-12-12T01:31:25.794Z,17.03
2018-12-12T01:33:31.906Z,19.92
2018-12-12T01:35:38.479Z,16.60
2018-12-12T01:37:45.007Z,19.02
2018-12-12T01:39:51.946Z,22.03
2018-12-12T01:42:20.788Z,18.62
2018-12-12T01:44:50.000Z,19.17
2018-12-12T01:46:57.193Z,20.57
2018-12-12T01:49:03.337Z,21.97
2018-12-12T01:51:10.024Z,22.73
2018-12-12T01:53:17.005Z,17.33
2018-12-12T01:55:23.347Z,17.27
2018-12-12T01:57:29.447Z,18.17
2018-12-12T01:59:35.608Z,23.73
2018-12-12T02:01:41.769Z,18.87
2018-12-12T02:03:48.118Z,15.43
2018-12-12T02:05:55.180Z,15.27
2018-12-12T02:08:01.415Z,18.53
2018-12-12T02:10:08.523Z,20.60
2018-12-12T02:12:14.720Z,19.87
2018-12-12T02:14:21.190Z,21.13
2018-12-12T02:16:27.435Z,17.70
2018-12-12T02:18:34.721Z,26.20
2018-12-12T02:20:40.937Z,18.80
2018-12-12T02:22:47.036Z,17.67
2018-12-12T02:24:53.378Z,18.87
2018-12-12T02:29:18.085Z,19.73
2018-12-12T02:31:24.560Z,17.67
2018-12-12T02:33:30.936Z,17.20
2018-12-12T02:35:37.115Z,20.20
2018-12-12T02:37:43.287Z,20.85
2018-12-12T02:39:49.429Z,16.93
2018-12-12T02:42:18.482Z,22.10
2018-12-12T02:44:46.746Z,17.27
2018-12-12T02:46:53.229Z,17.43
2018-12-12T02:48:59.431Z,17.00
2018-12-12T02:51:06.450Z,24.03
2018-12-12T02:53:13.022Z,16.03
2018-12-12T02:55:19.386Z,16.20
2018-12-12T02:57:25.552Z,16.00
2018-12-12T02:59:32.370Z,21.30
2018-12-12T03:01:38.481Z,20.53
2018-12-12T03:03:44.853Z,19.85
2018-12-12T03:05:52.049Z,19.80
2018-12-12T03:07:58.261Z,17.90
2018-12-12T03:10:04.717Z,18.87
2018-12-12T03:12:10.923Z,15.47
2018-12-12T03:14:17.155Z,16.57
2018-12-12T03:16:24.058Z,19.17
2018-12-12T03:18:30.936Z,16.33
2018-12-12T03:20:37.218Z,18.90
2018-12-12T03:22:43.621Z,17.57
2018-12-12T03:24:49.715Z,15.00
2018-12-12T03:26:55.906Z,15.50
2018-12-12T03:29:02.514Z,16.10
2018-12-12T03:31:08.624Z,17.57
2018-12-12T03:33:14.979Z,16.40
2018-12-12T03:35:21.823Z,22.63
2018-12-12T03:37:27.893Z,17.93
2018-12-12T03:39:34.935Z,18.13
2018-12-12T03:41:41.221Z,19.10
2018-12-12T03:43:47.368Z,16.77
2018-12-12T03:45:53.531Z,24.70
2018-12-12T03:47:59.665Z,19.30
2018-12-12T03:50:06.257Z,17.73
2018-12-12T03:52:13.281Z,18.40
2018-12-12T03:54:19.340Z,17.30
2018-12-12T03:56:25.666Z,16.20
2018-12-12T03:58:31.775Z,18.70
2018-12-12T04:00:37.949Z,17.20
2018-12-12T04:02:44.258Z,20.10
2018-12-12T04:05:13.465Z,17.67
2018-12-12T04:07:43.306Z,15.25
2018-12-12T04:09:49.578Z,15.43
2018-12-12T04:11:55.814Z,22.17
2018-12-12T04:14:02.506Z,19.10
2018-12-12T04:16:08.589Z,18.30
2018-12-12T04:18:14.781Z,15.05
2018-12-12T04:20:21.173Z,20.20
2018-12-12T04:22:27.319Z,19.70
2018-12-12T04:24:34.149Z,19.00
2018-12-12T04:26:41.497Z,17.82
2018-12-12T04:28:47.686Z,16.40
2018-12-12T04:30:54.752Z,18.83
2018-12-12T04:33:01.003Z,25.75
2018-12-12T04:35:07.734Z,17.07
2018-12-12T04:37:13.872Z,21.12
2018-12-12T04:39:20.338Z,39.90
2018-12-12T04:41:26.486Z,22.43
2018-12-12T04:43:33.852Z,21.37
2018-12-12T04:45:41.403Z,20.67
2018-12-12T04:47:47.516Z,18.53
2018-12-12T04:49:53.682Z,20.43
2018-12-12T04:52:00.055Z,23.70
2018-12-12T04:54:06.190Z,18.30
2018-12-12T04:56:14.270Z,21.90
2018-12-12T04:58:20.398Z,18.27
2018-12-12T05:00:26.495Z,18.57
2018-12-12T05:02:33.038Z,18.07
2018-12-12T05:04:39.996Z,20.97
2018-12-12T05:06:46.220Z,20.86
2018-12-12T05:08:52.507Z,20.70
2018-12-12T05:10:58.540Z,20.37
2018-12-12T05:13:04.644Z,23.47
2018-12-12T05:15:11.042Z,22.90
2018-12-12T05:17:17.257Z,19.53
2018-12-12T05:19:23.977Z,27.00
2018-12-12T05:21:30.362Z,21.67
2018-12-12T05:23:36.615Z,22.67
2018-12-12T05:25:42.711Z,21.17
2018-12-12T05:27:49.069Z,21.00
2018-12-12T05:29:55.289Z,16.97
2018-12-12T05:32:01.590Z,18.87
2018-12-12T05:34:07.730Z,20.70
2018-12-12T05:36:13.819Z,19.70
2018-12-12T05:38:20.121Z,19.97
2018-12-12T05:40:26.634Z,20.30
2018-12-12T05:42:34.985Z,23.37
2018-12-12T05:44:41.267Z,24.70
2018-12-12T05:46:47.385Z,24.85
2018-12-12T05:48:53.468Z,19.17
2018-12-12T05:50:59.683Z,22.00
2018-12-12T05:55:22.158Z,19.33
2018-12-12T05:57:28.816Z,24.77
2018-12-12T05:59:35.268Z,22.73
2018-12-12T06:01:41.436Z,19.47
2018-12-12T06:03:47.545Z,23.27
2018-12-12T06:06:15.985Z,24.23
2018-12-12T06:08:44.965Z,24.17
2018-12-12T06:10:51.087Z,20.50
2018-12-12T06:12:58.000Z,21.50
2018-12-12T06:15:04.424Z,24.00
2018-12-12T06:17:11.880Z,25.87
2018-12-12T06:19:18.115Z,23.23
2018-12-12T06:21:24.477Z,20.30
2018-12-12T06:23:30.689Z,19.93
2018-12-12T06:25:37.479Z,21.77
2018-12-12T06:27:43.539Z,20.80
2018-12-12T06:29:49.679Z,23.60
2018-12-12T06:31:55.863Z,22.60
2018-12-12T06:34:02.172Z,22.43
2018-12-12T06:36:08.285Z,19.90
2018-12-12T06:38:14.546Z,20.25
2018-12-12T06:40:20.771Z,22.40
2018-12-12T06:42:26.831Z,20.43
2018-12-12T06:44:33.626Z,22.73
2018-12-12T06:46:39.997Z,19.87
2018-12-12T06:48:46.205Z,22.22
2018-12-12T06:50:52.506Z,22.50
2018-12-12T06:52:59.817Z,26.77
2018-12-12T06:55:06.387Z,20.63
2018-12-12T06:57:12.731Z,23.90
2018-12-12T06:59:18.819Z,22.73
2018-12-12T07:01:47.685Z,25.80
2018-12-12T07:04:16.151Z,24.67
2018-12-12T07:06:22.560Z,24.35
2018-12-12T07:08:29.667Z,22.67
2018-12-12T07:10:35.835Z,20.43
2018-12-12T07:12:42.075Z,22.70
2018-12-12T07:14:48.275Z,21.43
2018-12-12T07:16:54.617Z,19.13
2018-12-12T07:19:01.002Z,23.87
2018-12-12T07:21:07.144Z,18.73
2018-12-12T07:23:14.346Z,27.07
2018-12-12T07:25:43.621Z,19.90
2018-12-12T07:28:12.663Z,19.87
2018-12-12T07:30:19.089Z,19.43
2018-12-12T07:34:43.237Z,20.37
2018-12-12T07:36:49.362Z,20.40
2018-12-12T07:38:55.578Z,18.40
2018-12-12T07:41:01.990Z,18.27
2018-12-12T07:43:41.026Z,19.03
2018-12-12T07:46:15.019Z,22.33
2018-12-12T07:48:23.178Z,23.53
2018-12-12T07:50:48.106Z,18.50
2018-12-12T07:53:11.206Z,19.33
2018-12-12T07:55:17.314Z,18.03
2018-12-12T07:57:23.515Z,17.77
2018-12-12T07:59:30.005Z,19.32
2018-12-12T08:01:36.510Z,21.47
2018-12-12T08:03:42.689Z,22.97
2018-12-12T08:05:48.915Z,23.03
2018-12-12T08:07:55.047Z,24.07
2018-12-12T08:10:03.215Z,20.07
2018-12-12T08:12:09.895Z,26.53
2018-12-12T08:14:16.433Z,24.70
2018-12-12T08:16:22.790Z,23.63
2018-12-12T08:18:29.043Z,26.43
2018-12-12T08:20:36.256Z,27.30
2018-12-12T08:22:42.560Z,25.43
2018-12-12T08:24:48.766Z,28.13
2018-12-12T08:26:55.026Z,21.03
2018-12-12T08:29:01.173Z,23.60
2018-12-12T08:31:07.557Z,22.57
2018-12-12T08:33:15.040Z,23.80
2018-12-12T08:35:21.250Z,22.07
2018-12-12T08:37:27.401Z,24.60
2018-12-12T08:39:33.497Z,29.73
2018-12-12T08:41:39.741Z,25.10
2018-12-12T08:43:46.297Z,22.45
2018-12-12T08:45:52.613Z,22.58
2018-12-12T08:47:58.733Z,24.20
2018-12-12T08:50:08.328Z,23.17
2018-12-12T08:54:32.268Z,22.83
2018-12-12T08:56:38.816Z,23.40
2018-12-12T08:58:45.730Z,20.67
2018-12-12T09:00:53.077Z,24.20
2018-12-12T09:02:59.124Z,26.37
2018-12-12T09:05:05.621Z,23.17
2018-12-12T09:07:11.877Z,22.67
2018-12-12T09:11:34.639Z,23.70
2018-12-12T09:13:42.160Z,26.17
2018-12-12T09:15:48.294Z,28.83
2018-12-12T09:17:55.338Z,31.00
2018-12-12T09:20:01.528Z,30.73
2018-12-12T09:22:08.942Z,24.90
2018-12-12T09:24:15.373Z,24.02
2018-12-12T09:26:21.539Z,31.63
2018-12-12T09:28:27.613Z,24.03
2018-12-12T09:30:37.372Z,25.50
2018-12-12T09:32:45.675Z,25.93
2018-12-12T09:35:15.140Z,21.47
2018-12-12T09:37:21.330Z,25.50
2018-12-12T09:39:27.438Z,24.50
2018-12-12T09:41:33.828Z,28.67
2018-12-12T09:43:40.467Z,26.70
2018-12-12T09:45:46.857Z,22.20
2018-12-12T09:47:53.207Z,26.87
2018-12-12T09:52:16.789Z,26.57
2018-12-12T09:54:25.121Z,21.60
2018-12-12T09:56:31.365Z,21.20
2018-12-12T09:58:37.505Z,23.53
2018-12-12T10:00:43.759Z,21.70
2018-12-12T10:02:50.214Z,27.17
2018-12-12T10:04:56.582Z,23.20
2018-12-12T10:07:02.934Z,26.10
2018-12-12T10:09:11.762Z,24.53
2018-12-12T10:11:18.169Z,31.73
2018-12-12T10:13:25.261Z,25.27
2018-12-12T10:15:31.434Z,23.57
2018-12-12T10:17:37.569Z,24.77
2018-12-12T10:19:43.963Z,26.03
2018-12-12T10:21:50.786Z,21.37
2018-12-12T10:23:56.993Z,26.85
2018-12-12T10:26:05.704Z,29.02
2018-12-12T10:28:12.162Z,22.90
2018-12-12T10:30:18.408Z,26.62
2018-12-12T10:32:24.676Z,31.60
2018-12-12T10:34:30.905Z,24.67
2018-12-12T10:38:54.930Z,32.77
2018-12-12T10:41:01.044Z,22.87
2018-12-12T10:43:07.856Z,23.27
2018-12-12T10:45:14.311Z,27.13
2018-12-12T10:47:20.513Z,29.53
2018-12-12T10:49:26.983Z,24.93
2018-12-12T10:51:33.107Z,27.50
2018-12-12T10:53:39.245Z,30.13
2018-12-12T10:55:45.321Z,30.20
2018-12-12T10:57:51.498Z,28.15
2018-12-12T10:59:57.662Z,21.47
2018-12-12T11:02:10.373Z,29.43
2018-12-12T11:04:18.886Z,30.37
2018-12-12T11:06:24.984Z,33.97
2018-12-12T11:08:32.454Z,28.77
2018-12-12T11:10:38.741Z,25.93
2018-12-12T11:12:44.981Z,27.10
2018-12-12T11:17:08.123Z,30.40
2018-12-12T11:19:14.440Z,27.37
2018-12-12T11:21:21.686Z,21.30
2018-12-12T11:23:28.013Z,23.42
2018-12-12T11:25:34.330Z,27.63
2018-12-12T11:27:41.115Z,21.37
2018-12-12T11:29:48.072Z,19.75
2018-12-12T11:31:54.314Z,24.32
2018-12-12T11:34:00.546Z,20.83
2018-12-12T11:36:07.150Z,19.33
2018-12-12T11:38:13.481Z,34.13
2018-12-12T11:40:19.770Z,19.07
2018-12-12T11:42:28.044Z,18.30
2018-12-12T11:44:34.224Z,17.10
2018-12-12T11:46:41.691Z,15.30
2018-12-12T11:48:48.029Z,18.34
2018-12-12T11:50:54.158Z,15.07
2018-12-12T11:53:00.342Z,17.40
2018-12-12T11:55:06.908Z,18.60
2018-12-12T11:57:13.969Z,18.33
2018-12-12T11:59:20.096Z,22.20
2018-12-12T12:01:26.420Z,18.90
2018-12-12T12:03:32.706Z,20.70
2018-12-12T12:05:39.105Z,20.70
2018-12-12T12:07:46.129Z,19.40
2018-12-12T12:09:52.389Z,23.38
2018-12-12T12:12:00.000Z,22.33
2018-12-12T12:14:08.452Z,19.17
2018-12-12T12:16:15.062Z,24.77
2018-12-12T12:18:21.241Z,19.87
2018-12-12T12:20:28.264Z,25.00
2018-12-12T12:22:34.718Z,22.00
2018-12-12T12:24:40.930Z,19.23
2018-12-12T12:26:47.304Z,18.37
2018-12-12T12:28:54.088Z,16.80
2018-12-12T12:31:00.269Z,18.13
2018-12-12T12:33:06.597Z,19.63
2018-12-12T12:35:14.323Z,21.70
2018-12-12T12:37:20.668Z,24.80
2018-12-12T12:39:28.066Z,20.73
2018-12-12T12:41:34.315Z,18.20
2018-12-12T12:43:40.502Z,17.77
2018-12-12T12:45:47.335Z,21.73
2018-12-12T12:47:53.957Z,26.23
2018-12-12T12:50:00.049Z,21.93
2018-12-12T12:52:06.684Z,17.83
2018-12-12T12:54:13.132Z,23.20
2018-12-12T12:58:37.821Z,18.10
2018-12-12T13:00:44.298Z,17.10
2018-12-12T13:02:50.550Z,19.33
2018-12-12T13:04:56.727Z,21.90
2018-12-12T13:07:02.943Z,23.10
2018-12-12T13:09:09.591Z,20.07
2018-12-12T13:11:15.756Z,22.63
2018-12-12T13:13:22.389Z,22.50
2018-12-12T13:15:29.122Z,26.67
2018-12-12T13:17:35.293Z,29.00
2018-12-12T13:19:41.506Z,19.10
2018-12-12T13:21:48.714Z,16.23
2018-12-12T13:23:55.010Z,22.73
2018-12-12T13:26:01.580Z,15.77
2018-12-12T13:28:07.699Z,19.07
2018-12-12T13:30:13.977Z,13.70
2018-12-12T13:32:20.945Z,15.00
2018-12-12T13:34:27.068Z,15.90
2018-12-12T13:36:33.290Z,18.75
2018-12-12T13:38:39.679Z,13.00
2018-12-12T13:40:45.754Z,19.90
2018-12-12T13:42:52.083Z,13.40
2018-12-12T13:44:58.526Z,17.80
2018-12-12T13:47:05.251Z,14.53
2018-12-12T13:49:12.762Z,17.50
2018-12-12T13:51:19.018Z,18.60
2018-12-12T13:53:25.647Z,18.17
2018-12-12T13:55:31.853Z,32.87
2018-12-12T13:57:39.264Z,29.43
2018-12-12T13:59:45.831Z,21.93
2018-12-12T14:01:52.186Z,15.97
2018-12-12T14:03:58.409Z,17.30
2018-12-12T14:06:05.317Z,18.03
2018-12-12T14:08:11.473Z,15.33
2018-12-12T14:10:17.678Z,18.07
2018-12-12T14:12:23.886Z,13.07
2018-12-12T14:14:30.176Z,17.07
2018-12-12T14:16:36.470Z,18.17
2018-12-12T14:18:43.483Z,22.13
2018-12-12T14:20:49.798Z,16.03
2018-12-12T14:22:55.991Z,21.57
2018-12-12T14:27:19.425Z,18.93
2018-12-12T14:29:25.783Z,19.57
2018-12-12T14:31:32.053Z,21.10
2018-12-12T14:33:38.605Z,22.15
2018-12-12T14:35:44.756Z,20.50
2018-12-12T14:40:09.373Z,21.60
2018-12-12T14:42:16.119Z,22.60
2018-12-12T14:44:22.455Z,19.07
2018-12-12T14:46:28.704Z,16.57
2018-12-12T14:48:34.877Z,19.57
2018-12-12T14:50:41.622Z,23.37
2018-12-12T14:52:47.829Z,30.90
2018-12-12T14:54:54.607Z,28.63
2018-12-12T14:59:19.399Z,25.87
2018-12-12T15:01:26.627Z,20.93
2018-12-12T15:03:33.476Z,15.30
2018-12-12T15:05:41.445Z,21.37
2018-12-12T15:07:48.041Z,20.02
2018-12-12T15:09:54.470Z,24.57
2018-12-12T15:12:01.882Z,23.30
2018-12-12T15:14:09.366Z,28.40
2018-12-12T15:16:15.852Z,29.03
2018-12-12T15:18:22.109Z,32.70
2018-12-12T15:20:28.252Z,31.73
2018-12-12T15:22:34.558Z,29.00
2018-12-12T15:24:40.851Z,30.80
2018-12-12T15:26:47.145Z,56.40
2018-12-12T15:28:54.232Z,37.33
2018-12-12T15:31:00.524Z,34.27
2018-12-12T15:33:08.625Z,36.67
2018-12-12T15:35:14.866Z,43.03
2018-12-12T15:37:21.343Z,36.20
2018-12-12T15:39:27.526Z,28.57
2018-12-12T15:41:34.338Z,27.10
2018-12-12T15:43:40.786Z,24.80
2018-12-12T15:45:47.147Z,22.27
2018-12-12T15:47:53.675Z,21.27
2018-12-12T15:50:00.715Z,27.37
2018-12-12T15:52:07.365Z,29.53
2018-12-12T15:54:13.545Z,29.80
2018-12-12T15:56:19.903Z,29.83
2018-12-12T15:58:26.243Z,24.23
2018-12-12T16:00:33.790Z,27.90
2018-12-12T16:02:40.584Z,33.47
2018-12-12T16:04:49.140Z,28.40
2018-12-12T16:06:55.536Z,25.77
2018-12-12T16:09:01.928Z,18.87
2018-12-12T16:11:10.233Z,21.80
2018-12-12T16:13:16.355Z,29.93
2018-12-12T16:15:22.683Z,31.17
2018-12-12T16:17:28.919Z,24.13
2018-12-12T16:19:35.390Z,32.40
2018-12-12T16:21:41.792Z,33.57
2018-12-12T16:23:48.119Z,26.80
2018-12-12T16:25:55.820Z,29.47
2018-12-12T16:28:02.199Z,20.30
2018-12-12T16:30:09.473Z,35.77
2018-12-12T16:32:15.873Z,36.40
2018-12-12T16:34:23.085Z,25.87
2018-12-12T16:36:29.861Z,25.70
2018-12-12T16:38:36.178Z,33.73
2018-12-12T16:46:43.359Z,24.93
2018-12-12T16:48:49.857Z,31.57
2018-12-12T16:50:56.129Z,30.50
2018-12-12T16:53:02.667Z,28.43
2018-12-12T16:55:09.350Z,27.33
2018-12-12T16:57:16.103Z,35.08
2018-12-12T16:59:23.248Z,30.30
2018-12-12T17:01:29.713Z,30.53
2018-12-12T17:03:36.813Z,29.17
2018-12-12T17:05:43.763Z,29.97
2018-12-12T17:07:49.999Z,25.80
2018-12-12T17:09:56.428Z,26.43
2018-12-12T17:12:16.770Z,25.30
2018-12-12T17:14:33.493Z,20.00
2018-12-12T17:16:40.975Z,24.20
2018-12-12T17:18:47.355Z,15.67
2018-12-12T17:20:54.348Z,23.00
2018-12-12T17:23:00.788Z,17.23
2018-12-12T17:25:07.222Z,27.37
2018-12-12T17:27:13.495Z,26.60
2018-12-12T17:29:19.726Z,23.47
2018-12-12T17:31:25.948Z,36.00
2018-12-12T17:33:32.094Z,36.17
2018-12-12T17:35:39.090Z,32.30
2018-12-12T17:37:47.630Z,24.43
2018-12-12T17:39:53.786Z,21.10
2018-12-12T17:42:00.086Z,24.23
2018-12-12T17:44:07.411Z,21.73
2018-12-12T17:46:14.572Z,23.57
2018-12-12T17:48:20.707Z,25.23
2018-12-12T17:50:26.968Z,21.43
2018-12-12T17:52:33.910Z,24.47
2018-12-12T17:54:42.197Z,23.47
2018-12-12T17:56:49.874Z,24.20
2018-12-12T17:58:56.085Z,24.90
2018-12-12T18:01:02.539Z,23.00
2018-12-12T18:03:11.293Z,25.23
2018-12-12T18:05:35.970Z,24.03
2018-12-12T18:07:44.148Z,25.80
2018-12-12T18:09:52.866Z,24.17
2018-12-12T18:12:02.047Z,19.80
2018-12-12T18:14:09.440Z,26.20
2018-12-12T18:16:19.150Z,21.13
2018-12-12T18:18:27.398Z,19.03
2018-12-12T18:20:34.909Z,20.23
2018-12-12T18:22:43.274Z,20.10
2018-12-12T18:24:51.659Z,19.27
2018-12-12T18:26:57.838Z,20.07
2018-12-12T18:29:04.809Z,21.73
2018-12-12T18:31:17.922Z,22.40
2018-12-12T18:33:29.647Z,16.50
2018-12-12T18:37:57.709Z,21.17
2018-12-12T18:40:04.243Z,25.23
2018-12-12T18:42:12.459Z,25.60
2018-12-12T18:44:32.643Z,24.67
2018-12-12T18:46:38.843Z,25.33
2018-12-12T18:48:45.151Z,25.07
2018-12-12T18:50:53.426Z,23.40
2018-12-12T18:53:09.504Z,22.50
2018-12-12T18:55:23.539Z,14.27
2018-12-12T18:57:30.707Z,35.70
2018-12-12T18:59:37.459Z,22.97
2018-12-12T19:01:43.880Z,22.00
2018-12-12T19:03:50.357Z,28.03
2018-12-12T19:05:56.691Z,21.80
2018-12-12T19:08:02.967Z,31.30
2018-12-12T19:10:17.612Z,32.90
2018-12-12T19:12:31.337Z,22.40
2018-12-12T19:14:39.792Z,27.50
2018-12-12T19:16:46.781Z,23.17
2018-12-12T19:18:53.205Z,21.77
2018-12-12T19:21:00.211Z,16.60
2018-12-12T19:23:07.414Z,25.23
2018-12-12T19:25:25.129Z,13.53
2018-12-12T19:27:38.827Z,22.10
2018-12-12T19:29:45.028Z,16.07
2018-12-12T19:31:51.239Z,21.57
2018-12-12T19:33:57.413Z,16.67
2018-12-12T19:36:03.668Z,20.23
2018-12-12T19:38:17.491Z,30.17
2018-12-12T19:40:31.360Z,25.50
2018-12-12T19:42:37.602Z,26.67
2018-12-12T19:44:43.892Z,16.37
2018-12-12T19:46:50.639Z,25.43
2018-12-12T19:48:56.880Z,21.60
2018-12-12T19:51:03.222Z,23.17
2018-12-12T19:53:16.759Z,19.50
2018-12-12T19:55:30.844Z,21.43
2018-12-12T19:57:37.424Z,18.13
2018-12-12T19:59:43.955Z,18.87
2018-12-12T20:01:50.854Z,16.97
2018-12-12T20:03:57.364Z,20.67
2018-12-12T20:06:03.927Z,16.67
2018-12-12T20:08:10.268Z,18.67
2018-12-12T20:10:16.609Z,15.47
2018-12-12T20:12:23.336Z,16.97
2018-12-12T20:14:29.612Z,15.63
2018-12-12T20:16:35.904Z,15.27
2018-12-12T20:18:42.323Z,16.03
2018-12-12T20:20:48.947Z,17.53
2018-12-12T20:22:55.267Z,18.63
2018-12-12T20:25:02.823Z,12.93
2018-12-12T20:27:16.908Z,14.67
2018-12-12T20:29:30.849Z,12.70
2018-12-12T20:31:37.365Z,14.13
2018-12-12T20:33:43.893Z,15.23
2018-12-12T20:35:51.351Z,12.63
2018-12-12T20:37:58.350Z,12.13
2018-12-12T20:40:05.460Z,11.80
2018-12-12T20:42:19.608Z,10.03
2018-12-12T20:44:34.486Z,9.83
2018-12-12T20:46:41.873Z,10.43
2018-12-12T20:48:48.665Z,13.07
2018-12-12T20:50:55.493Z,10.87
2018-12-12T20:53:07.989Z,9.27
2018-12-12T20:55:17.520Z,9.27
2018-12-12T20:57:24.472Z,9.77
2018-12-12T20:59:32.109Z,8.50
2018-12-12T21:01:38.479Z,10.83
2018-12-12T21:03:44.943Z,7.33
2018-12-12T21:05:54.569Z,8.57
2018-12-12T21:07:59.887Z,11.47
2018-12-12T21:10:06.793Z,9.20
2018-12-12T21:12:12.960Z,8.50
2018-12-12T21:14:19.764Z,9.70
2018-12-12T21:16:26.697Z,9.17
2018-12-12T21:18:32.877Z,8.40
2018-12-12T21:20:39.991Z,8.17
2018-12-12T21:22:46.236Z,9.57
2018-12-12T21:24:52.458Z,8.00
2018-12-12T21:27:00.701Z,7.57
2018-12-12T21:29:06.988Z,8.90
2018-12-12T21:31:13.449Z,8.97
2018-12-12T21:33:20.757Z,9.10
2018-12-12T21:35:27.229Z,7.60
2018-12-12T21:37:33.813Z,8.13
2018-12-12T21:39:40.071Z,8.87
2018-12-12T21:41:48.743Z,10.40
2018-12-12T21:43:55.318Z,9.30
2018-12-12T21:46:03.243Z,8.97
2018-12-12T21:48:09.931Z,7.20
2018-12-12T21:50:17.516Z,7.17
2018-12-12T21:52:24.970Z,6.90
2018-12-12T21:54:31.393Z,7.93
2018-12-12T21:56:37.692Z,6.80
2018-12-12T21:58:44.809Z,8.53
2018-12-12T22:00:51.111Z,7.07
2018-12-12T22:02:57.344Z,5.70
2018-12-12T22:05:03.480Z,8.07
2018-12-12T22:07:10.051Z,7.30
2018-12-12T22:09:16.570Z,7.37
2018-12-12T22:11:22.945Z,7.10
2018-12-12T22:13:29.177Z,8.47
2018-12-12T22:15:36.137Z,7.20
2018-12-12T22:17:44.168Z,6.73
2018-12-12T22:19:52.154Z,9.73
2018-12-12T22:21:58.472Z,8.77
2018-12-12T22:24:06.032Z,6.53
2018-12-12T22:26:13.013Z,7.60
2018-12-12T22:28:20.000Z,7.37
2018-12-12T22:30:26.821Z,8.73
2018-12-12T22:32:33.764Z,7.03
2018-12-12T22:34:39.903Z,9.30
2018-12-12T22:36:47.933Z,12.20
2018-12-12T22:38:54.419Z,8.00
2018-12-12T22:41:00.847Z,10.40
2018-12-12T22:43:07.021Z,7.87
2018-12-12T22:45:23.896Z,8.70
2018-12-12T22:47:32.818Z,9.90
2018-12-12T22:49:41.375Z,9.10
2018-12-12T22:51:47.917Z,7.93
2018-12-12T22:53:54.284Z,7.17
2018-12-12T22:56:00.851Z,7.47
2018-12-12T22:58:07.132Z,8.93
2018-12-12T23:00:18.725Z,8.90
2018-12-12T23:02:27.863Z,8.07
2018-12-12T23:04:34.480Z,11.83
2018-12-12T23:06:40.745Z,11.10
2018-12-12T23:08:47.376Z,10.90
2018-12-12T23:10:54.540Z,10.50
2018-12-12T23:13:00.853Z,12.17
2018-12-12T23:15:07.876Z,11.23
2018-12-12T23:17:14.670Z,11.40
2018-12-12T23:19:21.586Z,12.03
2018-12-12T23:21:28.141Z,11.33
2018-12-12T23:23:34.287Z,10.10
2018-12-12T23:25:44.545Z,9.87
2018-12-12T23:27:50.752Z,11.70
2018-12-12T23:29:58.432Z,9.00
2018-12-12T23:32:05.288Z,9.47
2018-12-12T23:34:11.501Z,9.93
2018-12-12T23:36:19.096Z,8.23
2018-12-12T23:38:26.432Z,10.30
2018-12-12T23:40:33.393Z,9.70
2018-12-12T23:42:40.634Z,10.23
2018-12-12T23:44:46.928Z,9.00
2018-12-12T23:46:53.147Z,8.07
2018-12-12T23:49:00.578Z,8.70
2018-12-12T23:51:06.780Z,9.23
2018-12-12T23:53:13.954Z,9.40
2018-12-12T23:55:20.153Z,12.90
2018-12-12T23:57:26.234Z,10.40
2018-12-12T23:59:33.469Z,11.03
